Time;durP1;ratioP1;P1;durP2;ratioP2;P2;SDS_P1;SDS_P2;PMS_P1;PMS_P2;Temp;Humidity;BMP_temperature;BMP_pressure;BME280_temperature;BME280_humidity;BME280_pressure;Samples;Min_cycle;Max_cycle;Signal;HPM_P1;HPM_P2
2021/12/06 09:50:06;;;;;;;8.37;5.13;;;1.70;99.90;;;;;;5132643;27;20617;-76
2021/12/06 09:52:32;;;;;;;8.40;6.37;;;1.70;99.90;;;;;;5131829;28;20481;-76
2021/12/06 09:54:58;;;;;;;10.80;7.43;;;1.80;99.90;;;;;;5131956;28;20933;-76
2021/12/06 09:57:24;;;;;;;12.10;7.40;;;1.90;99.90;;;;;;5130611;28;20179;-76
2021/12/06 09:59:50;;;;;;;10.80;7.23;;;1.90;99.90;;;;;;5131894;27;20465;-76
2021/12/06 10:02:19;;;;;;;9.73;6.87;;;1.90;99.90;;;;;;5131533;28;20206;-77
2021/12/06 10:04:53;;;;;;;13.03;7.37;;;2.00;99.90;;;;;;5131780;27;20191;-76
2021/12/06 10:07:20;;;;;;;10.13;7.57;;;2.00;99.90;;;;;;5132299;27;20424;-77
2021/12/06 10:09:47;;;;;;;12.40;7.60;;;2.10;99.90;;;;;;5131898;27;20606;-77
2021/12/06 10:12:16;;;;;;;11.93;8.37;;;2.20;99.90;;;;;;5131673;27;20401;-77
2021/12/06 10:14:43;;;;;;;21.77;13.23;;;2.20;99.90;;;;;;5130787;28;20953;-77
2021/12/06 10:17:09;;;;;;;17.67;11.47;;;2.20;99.90;;;;;;5131776;27;20962;-77
2021/12/06 10:19:35;;;;;;;14.67;10.47;;;2.30;99.90;;;;;;5130288;28;20401;-77
2021/12/06 10:22:01;;;;;;;12.33;8.77;;;2.40;99.90;;;;;;5131742;28;20411;-77
2021/12/06 10:24:29;;;;;;;13.03;9.07;;;2.60;99.90;;;;;;5130341;28;20428;-77
2021/12/06 10:27:15;;;;;;;12.63;9.97;;;2.60;99.90;;;;;;5131758;27;20616;-76
2021/12/06 10:29:48;;;;;;;10.63;8.53;;;2.60;99.90;;;;;;5131179;28;20463;-77
2021/12/06 10:32:17;;;;;;;11.40;8.30;;;2.60;99.90;;;;;;5129999;28;20416;-77
2021/12/06 10:34:50;;;;;;;12.00;8.13;;;2.40;99.90;;;;;;5131274;27;20434;-77
2021/12/06 10:37:39;;;;;;;12.90;8.57;;;2.60;99.90;;;;;;5131374;27;20430;-77
2021/12/06 10:40:09;;;;;;;12.73;9.57;;;2.70;99.90;;;;;;5131427;27;20423;-77
2021/12/06 10:42:41;;;;;;;32.23;19.27;;;2.70;99.90;;;;;;5130048;28;20409;-77
2021/12/06 10:45:12;;;;;;;17.03;10.70;;;2.80;99.90;;;;;;5130008;28;20429;-77
2021/12/06 10:47:39;;;;;;;8.27;6.63;;;2.90;99.90;;;;;;5131185;27;20405;-77
2021/12/06 10:50:17;;;;;;;9.63;8.10;;;3.10;99.90;;;;;;5129777;28;20446;-77
2021/12/06 10:52:52;;;;;;;11.53;7.90;;;3.10;99.90;;;;;;5129806;28;20412;-77
2021/12/06 10:55:19;;;;;;;27.10;17.30;;;3.10;99.90;;;;;;5129834;28;20795;-77
2021/12/06 10:57:58;;;;;;;11.33;7.43;;;3.00;99.90;;;;;;5129904;28;20409;-78
2021/12/06 11:00:40;;;;;;;10.87;8.10;;;2.80;99.90;;;;;;5123619;27;20398;-77
2021/12/06 11:03:35;;;;;;;9.90;7.00;;;2.80;99.90;;;;;;5117291;28;20396;-77
2021/12/06 11:06:07;;;;;;;12.37;9.03;;;2.80;99.90;;;;;;5118567;28;20390;-78
2021/12/06 11:08:37;;;;;;;12.57;8.93;;;2.70;99.90;;;;;;5116489;28;20449;-77
2021/12/06 11:11:09;;;;;;;13.27;8.30;;;2.50;99.90;;;;;;5116731;28;20417;-77
2021/12/06 11:13:38;;;;;;;13.93;8.67;;;2.50;99.90;;;;;;5117838;28;20490;-77
2021/12/06 11:16:31;;;;;;;12.47;8.90;;;2.60;99.90;;;;;;5117420;28;20418;-77
2021/12/06 11:19:03;;;;;;;30.93;17.20;;;2.50;99.90;;;;;;5117225;28;20432;-77
2021/12/06 11:21:31;;;;;;;16.33;10.67;;;2.40;99.90;;;;;;5116821;28;20871;-77
2021/12/06 11:24:15;;;;;;;33.60;20.23;;;2.50;99.90;;;;;;5117815;28;20437;-78
2021/12/06 11:26:49;;;;;;;12.83;8.37;;;2.50;99.90;;;;;;5118226;28;20390;-78
2021/12/06 11:29:23;;;;;;;16.03;10.30;;;2.60;99.90;;;;;;5115366;28;20812;-78
2021/12/06 11:32:17;;;;;;;32.83;16.80;;;2.80;99.90;;;;;;5116676;28;20415;-78
2021/12/06 11:34:48;;;;;;;34.17;17.77;;;2.90;99.90;;;;;;5117464;28;20428;-77
2021/12/06 11:37:30;;;;;;;22.83;12.83;;;3.00;99.90;;;;;;5116194;28;20519;-77
2021/12/06 11:40:17;;;;;;;17.67;11.13;;;3.00;99.90;;;;;;5116563;28;20421;-77
2021/12/06 11:43:00;;;;;;;7.80;6.73;;;2.90;99.90;;;;;;5115339;28;20938;-77
2021/12/06 11:45:35;;;;;;;8.27;6.83;;;2.80;99.90;;;;;;5115350;28;20898;-78
2021/12/06 11:48:10;;;;;;;8.67;5.57;;;2.90;99.90;;;;;;5116410;28;20547;-77
2021/12/06 11:50:50;;;;;;;8.93;6.10;;;2.90;99.90;;;;;;5115038;28;20790;-77
2021/12/06 11:53:19;;;;;;;8.17;6.77;;;3.00;99.90;;;;;;5115750;28;20455;-78
2021/12/06 11:55:52;;;;;;;8.93;6.53;;;2.80;99.90;;;;;;5116261;28;20409;-77
2021/12/06 11:58:31;;;;;;;8.83;7.17;;;2.70;99.90;;;;;;5115515;28;20405;-78
2021/12/06 12:01:16;;;;;;;11.40;9.13;;;2.60;99.90;;;;;;5115740;28;20484;-77
2021/12/06 12:03:46;;;;;;;11.97;8.20;;;2.50;99.90;;;;;;5116113;28;20448;-78
2021/12/06 12:06:29;;;;;;;14.50;9.80;;;2.60;99.90;;;;;;5115007;28;20424;-77
2021/12/06 12:09:22;;;;;;;12.33;8.77;;;2.60;99.90;;;;;;5114745;28;20469;-77
2021/12/06 12:11:57;;;;;;;10.40;6.70;;;3.10;99.90;;;;;;5112689;28;20425;-77
2021/12/06 12:14:36;;;;;;;10.73;7.57;;;3.60;99.90;;;;;;5114751;28;20428;-78
2021/12/06 12:17:09;;;;;;;9.50;6.90;;;3.60;99.90;;;;;;5114791;28;20405;-77
2021/12/06 12:19:35;;;;;;;13.63;9.13;;;3.50;99.90;;;;;;5115997;28;20402;-77
2021/12/06 12:22:02;;;;;;;12.70;9.77;;;3.20;99.90;;;;;;5114201;28;20413;-78
2021/12/06 12:24:29;;;;;;;16.20;11.80;;;2.90;99.90;;;;;;5115693;28;20202;-78
2021/12/06 12:27:19;;;;;;;11.97;9.23;;;2.70;99.90;;;;;;5116056;28;20810;-78
2021/12/06 12:29:45;;;;;;;9.70;6.83;;;2.60;99.90;;;;;;5116046;28;20469;-77
2021/12/06 12:32:12;;;;;;;12.50;8.87;;;2.40;99.90;;;;;;5115819;28;20409;-78
2021/12/06 12:34:42;;;;;;;27.67;16.93;;;2.40;99.90;;;;;;5115474;28;20429;-77
2021/12/06 12:37:10;;;;;;;52.80;27.63;;;2.40;99.90;;;;;;5115579;28;20750;-78
2021/12/06 12:39:36;;;;;;;55.80;30.23;;;2.40;99.90;;;;;;5114003;28;20413;-78
2021/12/06 12:42:05;;;;;;;15.57;9.57;;;2.40;99.90;;;;;;5115420;28;20997;-77
2021/12/06 12:44:52;;;;;;;29.17;17.53;;;2.50;99.90;;;;;;5115454;28;20437;-77
2021/12/06 12:47:21;;;;;;;11.30;7.63;;;2.60;99.90;;;;;;5115249;28;20450;-77
2021/12/06 12:49:50;;;;;;;8.87;6.80;;;2.80;99.90;;;;;;5115162;28;20824;-77
2021/12/06 12:52:33;;;;;;;8.33;6.27;;;3.00;99.90;;;;;;5114799;28;20412;-77
2021/12/06 12:54:59;;;;;;;8.73;6.40;;;2.90;99.90;;;;;;5115173;28;20422;-79
2021/12/06 12:57:36;;;;;;;9.53;7.13;;;2.80;99.90;;;;;;5115988;28;20462;-77
2021/12/06 13:00:04;;;;;;;11.90;8.33;;;2.70;99.90;;;;;;5115571;28;20170;-77
2021/12/06 13:02:34;;;;;;;16.03;9.60;;;2.80;99.90;;;;;;5113941;28;20849;-77
2021/12/06 13:04:59;;;;;;;10.13;7.17;;;2.90;99.90;;;;;;5114032;28;20470;-77
2021/12/06 13:07:30;;;;;;;11.07;7.77;;;2.90;99.90;;;;;;5115207;28;20413;-77
2021/12/06 13:09:58;;;;;;;9.87;5.50;;;2.90;99.90;;;;;;5114940;28;20587;-78
2021/12/06 13:12:28;;;;;;;13.10;7.40;;;3.00;99.90;;;;;;5113413;28;20417;-77
2021/12/06 13:15:08;;;;;;;15.43;7.20;;;3.10;99.90;;;;;;5113757;28;20482;-77
2021/12/06 13:17:45;;;;;;;7.00;5.47;;;3.30;99.90;;;;;;5116102;28;20780;-77
2021/12/06 13:20:22;;;;;;;9.50;6.73;;;3.30;99.90;;;;;;5113430;28;20413;-77
2021/12/06 13:22:51;;;;;;;11.30;7.17;;;3.30;99.90;;;;;;5114686;28;20470;-77
2021/12/06 13:25:21;;;;;;;15.90;8.83;;;3.30;99.90;;;;;;5115011;28;20445;-77
2021/12/06 13:28:03;;;;;;;14.67;8.13;;;3.30;99.90;;;;;;5114429;28;20437;-77
2021/12/06 13:30:38;;;;;;;16.77;9.23;;;3.20;99.90;;;;;;5113150;28;20445;-77
2021/12/06 13:33:03;;;;;;;11.50;6.63;;;2.90;99.90;;;;;;5114273;28;20874;-78
2021/12/06 13:36:00;;;;;;;13.70;6.90;;;2.90;99.90;;;;;;5114650;28;20412;-79
2021/12/06 13:38:28;;;;;;;12.33;6.40;;;2.80;99.90;;;;;;5113309;28;20278;-77
2021/12/06 13:40:56;;;;;;;6.30;4.90;;;2.80;99.90;;;;;;5114272;28;20406;-77
2021/12/06 13:43:35;;;;;;;5.60;4.13;;;2.70;99.90;;;;;;5112990;28;20444;-77
2021/12/06 13:46:17;;;;;;;6.47;4.17;;;2.70;99.90;;;;;;5114510;28;20895;-80
2021/12/06 13:48:46;;;;;;;7.23;5.00;;;2.70;99.90;;;;;;5113088;28;20991;-77
2021/12/06 13:51:28;;;;;;;11.73;6.80;;;2.80;99.90;;;;;;5114236;28;20883;-77
2021/12/06 13:53:56;;;;;;;10.70;6.57;;;2.90;99.90;;;;;;5114224;28;20451;-77
2021/12/06 13:56:40;;;;;;;6.30;4.70;;;2.90;99.90;;;;;;5112963;28;20421;-77
2021/12/06 13:59:07;;;;;;;11.67;6.87;;;3.00;99.90;;;;;;5114612;28;20443;-77
2021/12/06 14:01:35;;;;;;;11.27;7.33;;;3.00;99.90;;;;;;5115136;28;20772;-78
2021/12/06 14:04:06;;;;;;;6.77;5.17;;;3.00;99.90;;;;;;5116417;28;20904;-77
2021/12/06 14:07:05;;;;;;;9.60;7.57;;;2.90;99.90;;;;;;5114995;28;20413;-78
2021/12/06 14:09:42;;;;;;;10.63;7.47;;;2.80;99.90;;;;;;5098431;28;20587;-77
2021/12/06 14:12:21;;;;;;;11.57;7.53;;;2.70;99.90;;;;;;5112586;28;20417;-78
2021/12/06 14:14:50;;;;;;;15.87;9.10;;;2.70;99.90;;;;;;5112848;28;20581;-77
2021/12/06 14:17:17;;;;;;;8.03;6.60;;;2.70;99.90;;;;;;5113979;28;20421;-77
2021/12/06 14:19:45;;;;;;;13.13;8.20;;;2.60;99.90;;;;;;5113825;28;20768;-77
2021/12/06 14:22:15;;;;;;;18.77;8.80;;;2.50;99.90;;;;;;5113564;28;20886;-77
2021/12/06 14:24:43;;;;;;;9.30;6.40;;;2.40;99.90;;;;;;5113560;28;20433;-77
2021/12/06 14:27:10;;;;;;;7.67;5.80;;;2.30;99.90;;;;;;5113721;28;20493;-77
2021/12/06 14:29:36;;;;;;;10.53;7.07;;;2.10;99.90;;;;;;5113650;28;20456;-77
2021/12/06 14:32:09;;;;;;;10.57;7.97;;;2.10;99.90;;;;;;5112223;28;20420;-77
2021/12/06 14:34:39;;;;;;;16.87;9.40;;;2.00;99.90;;;;;;5113864;28;20665;-77
2021/12/06 14:37:07;;;;;;;17.50;9.67;;;2.00;99.90;;;;;;5116563;28;20413;-77
2021/12/06 14:39:35;;;;;;;7.97;6.20;;;2.00;99.90;;;;;;5116573;28;20452;-78
2021/12/06 14:42:16;;;;;;;14.47;10.63;;;1.90;99.90;;;;;;5115563;28;20439;-78
2021/12/06 14:44:50;;;;;;;15.10;8.87;;;1.80;99.90;;;;;;5114434;28;20452;-78
2021/12/06 14:47:25;;;;;;;12.00;7.77;;;1.80;99.90;;;;;;5116055;28;20401;-78
2021/12/06 14:49:53;;;;;;;18.63;11.83;;;1.80;99.90;;;;;;5116169;28;20464;-78
2021/12/06 14:52:24;;;;;;;15.50;9.93;;;1.70;99.90;;;;;;5115856;28;20444;-78
2021/12/06 14:57:58;;;;;;;19.50;10.57;;;1.70;99.90;;;;;;5118397;28;20420;-77
2021/12/06 15:00:25;;;;;;;11.03;7.50;;;1.60;99.90;;;;;;5116323;28;20449;-77
2021/12/06 15:02:54;;;;;;;31.60;15.47;;;1.50;99.90;;;;;;5115913;28;20424;-77
2021/12/06 15:05:27;;;;;;;12.93;8.10;;;1.40;99.90;;;;;;5117365;28;20416;-77
2021/12/06 15:07:57;;;;;;;15.47;7.67;;;1.40;99.90;;;;;;5117211;28;20401;-77
2021/12/06 15:10:23;;;;;;;12.57;7.57;;;1.30;99.90;;;;;;5116835;28;20411;-77
2021/12/06 15:12:52;;;;;;;10.60;6.87;;;1.20;99.90;;;;;;5115715;28;20914;-77
2021/12/06 15:15:24;;;;;;;14.73;8.23;;;1.10;99.90;;;;;;5117148;28;20959;-77
2021/12/06 15:17:51;;;;;;;11.20;6.07;;;1.20;99.90;;;;;;5118649;28;20428;-77
2021/12/06 15:20:17;;;;;;;11.53;5.97;;;1.00;99.90;;;;;;5116545;28;20406;-77
2021/12/06 15:22:43;;;;;;;13.47;6.57;;;1.00;99.90;;;;;;5116997;28;20404;-77
2021/12/06 15:25:11;;;;;;;14.37;9.23;;;0.80;99.90;;;;;;5116990;28;20210;-77
2021/12/06 15:27:41;;;;;;;15.67;8.77;;;0.80;99.90;;;;;;5117052;28;21009;-77
2021/12/06 15:30:11;;;;;;;8.50;5.37;;;0.80;99.90;;;;;;5116731;28;20441;-77
2021/12/06 15:32:37;;;;;;;27.17;14.23;;;0.70;99.90;;;;;;5116501;28;20449;-77
2021/12/06 15:35:04;;;;;;;16.33;8.90;;;0.70;99.90;;;;;;5116777;28;20465;-77
2021/12/06 15:37:30;;;;;;;14.90;8.77;;;0.60;99.90;;;;;;5116515;28;20179;-77
2021/12/06 15:39:56;;;;;;;33.37;12.40;;;0.50;99.90;;;;;;5116708;28;20413;-77
2021/12/06 15:42:26;;;;;;;24.40;11.53;;;0.40;99.90;;;;;;5116225;28;20497;-77
2021/12/06 15:44:54;;;;;;;24.73;12.10;;;0.40;99.90;;;;;;5116225;28;20792;-77
2021/12/06 15:47:37;;;;;;;28.33;12.47;;;0.40;99.90;;;;;;5116303;28;20418;-77
2021/12/06 15:50:10;;;;;;;27.03;11.87;;;0.30;99.90;;;;;;5116445;28;20532;-77
2021/12/06 15:52:37;;;;;;;20.90;9.23;;;0.20;99.90;;;;;;5116589;28;20381;-77
2021/12/06 15:55:11;;;;;;;14.07;7.20;;;0.10;99.90;;;;;;5116150;28;20436;-77
2021/12/06 15:57:40;;;;;;;12.63;6.60;;;0.10;99.90;;;;;;5114772;28;20409;-77
2021/12/06 16:00:11;;;;;;;11.77;6.63;;;0.00;99.90;;;;;;5115947;28;20420;-77
2021/12/06 16:02:37;;;;;;;13.87;7.70;;;0.00;99.90;;;;;;5114911;28;20763;-77
2021/12/06 16:05:10;;;;;;;10.50;6.33;;;0.00;99.90;;;;;;5115955;28;20482;-77
2021/12/06 16:07:37;;;;;;;10.53;7.10;;;0.00;99.90;;;;;;5114713;28;20186;-76
2021/12/06 16:10:13;;;;;;;12.63;7.17;;;0.00;99.90;;;;;;5115619;28;20445;-77
2021/12/06 16:13:01;;;;;;;8.00;5.57;;;-0.10;99.90;;;;;;5115806;28;20794;-77
2021/12/06 16:15:31;;;;;;;9.33;5.80;;;0.00;99.90;;;;;;5115565;28;20408;-77
2021/12/06 16:18:00;;;;;;;9.57;6.17;;;0.00;99.90;;;;;;5115551;28;20413;-76
2021/12/06 16:20:32;;;;;;;12.43;7.23;;;-0.10;99.90;;;;;;5115360;28;20466;-78
2021/12/06 16:22:58;;;;;;;9.93;7.63;;;-0.10;99.90;;;;;;5115647;28;20867;-77
2021/12/06 16:25:25;;;;;;;10.23;7.00;;;-0.10;99.90;;;;;;5116131;28;20453;-77
2021/12/06 16:28:00;;;;;;;14.13;6.70;;;-0.20;99.90;;;;;;5115147;28;20203;-77
2021/12/06 16:30:26;;;;;;;10.60;7.00;;;-0.20;99.90;;;;;;5115892;28;21001;-77
